Time;durP1;ratioP1;P1;durP2;ratioP2;P2;SDS_P1;SDS_P2;PMS_P1;PMS_P2;Temp;Humidity;BMP_temperature;BMP_pressure;BME280_temperature;BME280_humidity;BME280_pressure;Samples;Min_cycle;Max_cycle;Signal;HPM_P1;HPM_P2
2022/06/20 00:01:49;;;;;;;;;;;15.70;99.90;;;;;;8374476;28;20288;-69
2022/06/20 00:05:51;;;;;;;;;;;15.60;99.90;;;;;;8369931;28;19928;-69
2022/06/20 00:09:52;;;;;;;;;;;15.60;99.90;;;;;;8359345;28;19920;-69
2022/06/20 00:13:55;;;;;;;;;;;15.50;99.90;;;;;;8372634;28;19931;-69
2022/06/20 00:17:57;;;;;;;;;;;15.50;99.90;;;;;;8373130;28;19920;-70
2022/06/20 00:21:58;;;;;;;;;;;15.50;99.90;;;;;;8377433;28;19930;-69
2022/06/20 00:26:00;;;;;;;;;;;15.40;99.90;;;;;;8370310;28;19920;-69
2022/06/20 00:30:02;;;;;;;;;;;15.40;99.90;;;;;;8374932;28;20364;-69
2022/06/20 00:34:04;;;;;;;;;;;15.40;99.90;;;;;;8373821;28;19920;-69
2022/06/20 00:38:06;;;;;;;;;;;15.40;99.90;;;;;;8366779;28;19924;-69
2022/06/20 00:42:09;;;;;;;;;;;15.30;99.90;;;;;;8401311;28;19921;-69
2022/06/20 00:46:22;;;;;;;;;;;15.30;99.90;;;;;;8381310;28;19965;-69
2022/06/20 00:50:27;;;;;;;;;;;15.30;99.90;;;;;;8383190;28;19921;-69
2022/06/20 00:54:46;;;;;;;;;;;15.20;99.90;;;;;;8382271;28;20284;-69
2022/06/20 00:58:55;;;;;;;;;;;15.20;99.90;;;;;;8374787;28;19920;-69
2022/06/20 01:03:05;;;;;;;;;;;15.20;99.90;;;;;;8372809;28;20012;-69
2022/06/20 01:07:11;;;;;;;;;;;15.30;99.90;;;;;;8377937;28;19982;-69
2022/06/20 01:11:24;;;;;;;;;;;15.30;99.90;;;;;;8380629;28;20261;-69
2022/06/20 01:15:28;;;;;;;;;;;15.30;99.90;;;;;;8374254;28;19924;-69
2022/06/20 01:19:38;;;;;;;;;;;15.30;99.90;;;;;;8382450;28;19928;-69
2022/06/20 01:23:40;;;;;;;;;;;15.30;99.90;;;;;;8373630;28;20376;-69
2022/06/20 01:27:43;;;;;;;;;;;15.20;99.90;;;;;;8371898;28;19929;-69
2022/06/20 01:31:48;;;;;;;;;;;15.10;99.90;;;;;;8374071;28;21707;-69
2022/06/20 01:40:12;;;;;;;;;;;15.10;99.90;;;;;;8370439;28;19944;-69
2022/06/20 01:44:14;;;;;;;;;;;15.10;99.90;;;;;;8380821;28;19936;-69
2022/06/20 01:48:20;;;;;;;;;;;15.10;99.90;;;;;;8373314;28;19967;-69
2022/06/20 01:52:28;;;;;;;;;;;15.10;99.90;;;;;;8377871;28;19947;-69
2022/06/20 01:56:30;;;;;;;;;;;15.20;99.90;;;;;;8384154;28;19927;-69
2022/06/20 02:00:32;;;;;;;;;;;15.20;99.90;;;;;;8380338;28;19925;-69
2022/06/20 02:04:34;;;;;;;;;;;15.20;99.90;;;;;;8390898;28;19924;-69
2022/06/20 02:08:37;;;;;;;;;;;15.20;99.90;;;;;;8379755;28;19932;-69
2022/06/20 02:12:39;;;;;;;;;;;15.20;99.90;;;;;;8379441;28;19943;-69
2022/06/20 02:16:43;;;;;;;;;;;15.20;99.90;;;;;;8386787;28;19924;-69
2022/06/20 02:20:47;;;;;;;;;;;15.20;99.90;;;;;;8385689;28;19925;-69
2022/06/20 02:24:52;;;;;;;;;;;15.20;99.90;;;;;;8391921;28;19966;-69
2022/06/20 02:28:54;;;;;;;;;;;15.20;99.90;;;;;;8382633;28;19931;-69
2022/06/20 02:32:59;;;;;;;;;;;15.20;99.90;;;;;;8387612;28;19920;-69
2022/06/20 02:37:02;;;;;;;;;;;15.20;99.90;;;;;;8378593;28;19921;-69
2022/06/20 02:41:04;;;;;;;;;;;15.20;99.90;;;;;;8378805;28;20367;-69
2022/06/20 02:45:10;;;;;;;;;;;15.20;99.90;;;;;;8375594;28;19939;-69
2022/06/20 02:49:12;;;;;;;;;;;15.20;99.90;;;;;;8385494;28;20299;-69
2022/06/20 02:53:20;;;;;;;;;;;15.20;99.90;;;;;;8380296;28;19939;-69
2022/06/20 02:57:29;;;;;;;;;;;15.20;99.90;;;;;;8378384;28;19924;-69
2022/06/20 03:01:36;;;;;;;;;;;15.20;99.90;;;;;;8383881;28;19920;-69
2022/06/20 03:05:38;;;;;;;;;;;15.20;99.90;;;;;;8377333;28;19925;-69
2022/06/20 03:09:41;;;;;;;;;;;15.20;99.90;;;;;;8383869;28;19935;-69
2022/06/20 03:13:43;;;;;;;;;;;15.10;99.90;;;;;;8377753;28;20387;-69
2022/06/20 03:17:46;;;;;;;;;;;15.10;99.90;;;;;;8369091;28;19932;-69
2022/06/20 03:21:48;;;;;;;;;;;15.10;99.90;;;;;;8388798;28;19928;-69
2022/06/20 03:25:50;;;;;;;;;;;15.10;99.90;;;;;;8380784;28;19927;-69
2022/06/20 03:29:54;;;;;;;;;;;15.10;99.90;;;;;;8379883;28;19928;-69
2022/06/20 03:33:56;;;;;;;;;;;15.00;99.90;;;;;;8368513;28;19928;-69
2022/06/20 03:37:58;;;;;;;;;;;15.00;99.90;;;;;;8383594;28;19931;-69
2022/06/20 03:42:01;;;;;;;;;;;15.00;99.90;;;;;;8379153;28;20332;-69
2022/06/20 03:46:10;;;;;;;;;;;14.90;99.90;;;;;;8381645;28;20273;-69
2022/06/20 03:50:15;;;;;;;;;;;14.90;99.90;;;;;;8378869;28;19932;-69
2022/06/20 03:54:20;;;;;;;;;;;14.90;99.90;;;;;;8374514;28;19920;-69
2022/06/20 03:58:29;;;;;;;;;;;14.90;99.90;;;;;;8367379;28;19924;-69
2022/06/20 04:02:34;;;;;;;;;;;14.80;99.90;;;;;;8384470;28;19920;-69
2022/06/20 04:06:40;;;;;;;;;;;14.80;99.90;;;;;;8372996;28;19928;-69
2022/06/20 04:10:57;;;;;;;;;;;14.80;99.90;;;;;;8386612;28;19924;-69
2022/06/20 04:15:16;;;;;;;;;;;14.90;99.90;;;;;;8381251;28;19920;-70
2022/06/20 04:19:30;;;;;;;;;;;14.90;99.90;;;;;;8378963;28;19920;-69
2022/06/20 04:23:34;;;;;;;;;;;15.00;99.90;;;;;;8387681;28;20368;-69
2022/06/20 04:27:36;;;;;;;;;;;15.00;99.90;;;;;;8390682;28;20279;-69
2022/06/20 04:31:52;;;;;;;;;;;15.00;99.90;;;;;;8386349;28;19924;-69
2022/06/20 04:35:57;;;;;;;;;;;15.00;99.90;;;;;;8376331;28;19943;-69
2022/06/20 04:40:02;;;;;;;;;;;15.00;99.90;;;;;;8383929;28;19928;-69
2022/06/20 04:44:24;;;;;;;;;;;15.00;99.90;;;;;;8378532;28;19928;-69
2022/06/20 04:48:26;;;;;;;;;;;15.10;99.90;;;;;;8383288;28;19959;-69
2022/06/20 04:52:28;;;;;;;;;;;15.10;99.90;;;;;;8377915;28;19921;-70
2022/06/20 04:56:30;;;;;;;;;;;15.10;99.90;;;;;;8380657;28;20130;-69
2022/06/20 05:00:51;;;;;;;;;;;15.20;99.90;;;;;;8376376;28;19924;-69
2022/06/20 05:04:55;;;;;;;;;;;15.20;99.90;;;;;;8369187;28;19949;-69
2022/06/20 05:09:03;;;;;;;;;;;15.30;99.90;;;;;;8378685;28;19931;-69
2022/06/20 05:13:12;;;;;;;;;;;15.40;99.90;;;;;;8388326;28;19924;-69
2022/06/20 05:17:18;;;;;;;;;;;15.40;99.90;;;;;;8369618;28;19925;-69
2022/06/20 05:21:22;;;;;;;;;;;15.50;99.90;;;;;;8350087;28;19920;-69
2022/06/20 05:25:25;;;;;;;;;;;15.50;99.90;;;;;;8352126;28;20241;-69
2022/06/20 05:29:32;;;;;;;;;;;15.50;99.90;;;;;;8349721;28;20280;-69
2022/06/20 05:33:41;;;;;;;;;;;15.50;99.90;;;;;;8361998;28;20372;-69
2022/06/20 05:37:43;;;;;;;;;;;15.50;99.90;;;;;;8361863;28;19928;-69
2022/06/20 05:41:46;;;;;;;;;;;15.50;99.90;;;;;;8366727;28;19921;-69
2022/06/20 05:45:52;;;;;;;;;;;15.60;99.90;;;;;;8361135;28;19921;-69
2022/06/20 05:50:03;;;;;;;;;;;15.70;99.90;;;;;;8362964;28;19982;-70
2022/06/20 05:54:19;;;;;;;;;;;15.70;99.90;;;;;;8362402;28;19924;-69
2022/06/20 05:58:23;;;;;;;;;;;15.70;99.90;;;;;;8361669;28;19928;-69
2022/06/20 06:02:28;;;;;;;;;;;15.70;99.90;;;;;;8372946;28;19927;-69
2022/06/20 06:06:42;;;;;;;;;;;15.80;99.90;;;;;;8371589;28;20380;-69
2022/06/20 06:10:49;;;;;;;;;;;15.90;99.90;;;;;;8364221;28;19925;-69
2022/06/20 06:14:58;;;;;;;;;;;16.00;99.90;;;;;;8369870;28;23422;-70
2022/06/20 06:19:03;;;;;;;;;;;16.10;99.90;;;;;;8383544;28;20372;-69
2022/06/20 06:23:07;;;;;;;;;;;16.20;99.90;;;;;;8373495;28;20288;-70
2022/06/20 06:27:13;;;;;;;;;;;16.20;99.90;;;;;;8373347;28;19953;-69
2022/06/20 06:31:21;;;;;;;;;;;16.20;99.90;;;;;;8360620;28;19932;-69
2022/06/20 06:35:31;;;;;;;;;;;16.20;99.90;;;;;;8361337;28;19966;-69
2022/06/20 06:39:40;;;;;;;;;;;16.30;99.90;;;;;;8358435;28;19921;-69
2022/06/20 06:43:48;;;;;;;;;;;16.30;99.90;;;;;;8360169;28;20388;-69
2022/06/20 06:48:28;;;;;;;;;;;16.50;99.90;;;;;;8358877;28;19920;-69
2022/06/20 06:52:38;;;;;;;;;;;16.60;99.90;;;;;;8278786;28;20439;-70
2022/06/20 06:57:02;;;;;;;;;;;16.70;99.90;;;;;;8319826;28;20394;-69
2022/06/20 07:01:11;;;;;;;;;;;16.80;99.90;;;;;;8355252;28;20371;-69
2022/06/20 07:05:19;;;;;;;;;;;17.00;99.90;;;;;;8368291;28;19924;-69
2022/06/20 07:09:32;;;;;;;;;;;17.10;99.90;;;;;;8369725;28;19929;-69
2022/06/20 07:13:38;;;;;;;;;;;17.20;99.90;;;;;;8359121;28;20057;-69
2022/06/20 07:17:42;;;;;;;;;;;17.30;99.90;;;;;;8357501;28;19928;-69
2022/06/20 07:21:43;;;;;;;;;;;17.40;99.90;;;;;;8358209;28;19948;-70
2022/06/20 07:25:49;;;;;;;;;;;17.50;99.90;;;;;;8391628;28;19920;-69
2022/06/20 07:29:58;;;;;;;;;;;17.50;99.90;;;;;;8357508;28;20280;-70
2022/06/20 07:34:02;;;;;;;;;;;17.70;99.90;;;;;;8359511;28;19925;-69
2022/06/20 07:38:10;;;;;;;;;;;17.80;99.90;;;;;;8348303;28;19929;-70
2022/06/20 07:42:22;;;;;;;;;;;17.80;99.90;;;;;;8360534;28;19925;-69
2022/06/20 07:46:26;;;;;;;;;;;17.70;99.90;;;;;;8359236;28;20265;-70
2022/06/20 07:50:39;;;;;;;;;;;17.60;99.90;;;;;;8359824;28;20020;-70
2022/06/20 07:54:44;;;;;;;;;;;17.40;99.90;;;;;;8357848;28;20012;-69
2022/06/20 07:58:54;;;;;;;;;;;17.30;99.90;;;;;;8356864;28;19921;-69
2022/06/20 08:02:55;;;;;;;;;;;17.20;99.90;;;;;;8355374;28;19924;-70
2022/06/20 08:07:16;;;;;;;;;;;17.00;99.90;;;;;;8359254;28;20061;-71
2022/06/20 08:12:04;;;;;;;;;;;16.90;99.90;;;;;;8371465;28;19928;-70
2022/06/20 08:15:53;;;;;;;;;;;16.90;99.90;;;;;;8358978;28;19935;-69
2022/06/20 08:19:55;;;;;;;;;;;17.00;99.90;;;;;;8355659;28;19924;-69
2022/06/20 08:24:07;;;;;;;;;;;17.20;99.90;;;;;;8370560;28;19980;-70
2022/06/20 08:28:22;;;;;;;;;;;17.30;99.90;;;;;;8356817;28;19928;-70
2022/06/20 08:32:44;;;;;;;;;;;17.30;99.90;;;;;;8365418;28;19978;-69
2022/06/20 08:36:51;;;;;;;;;;;17.40;99.90;;;;;;8346046;28;19920;-70
2022/06/20 08:40:56;;;;;;;;;;;17.40;99.90;;;;;;8368071;28;20426;-70
2022/06/20 08:45:07;;;;;;;;;;;17.50;99.90;;;;;;8372237;28;19920;-70
2022/06/20 08:49:32;;;;;;;;;;;17.40;99.90;;;;;;8356251;28;19928;-70
2022/06/20 08:53:52;;;;;;;;;;;17.40;99.90;;;;;;8355915;28;19940;-69
2022/06/20 08:57:57;;;;;;;;;;;17.50;99.90;;;;;;8360506;28;19935;-70
2022/06/20 09:02:29;;;;;;;;;;;17.50;99.90;;;;;;8386528;28;19928;-70
2022/06/20 09:06:40;;;;;;;;;;;17.60;99.90;;;;;;8392189;28;19964;-70
2022/06/20 09:11:00;;;;;;;;;;;17.70;99.90;;;;;;8368866;28;20222;-69
2022/06/20 09:15:08;;;;;;;;;;;17.70;99.90;;;;;;8364362;28;20380;-70
2022/06/20 09:19:28;;;;;;;;;;;17.70;99.90;;;;;;8354741;28;19921;-70
2022/06/20 09:23:36;;;;;;;;;;;17.80;99.90;;;;;;8356863;28;19921;-70
2022/06/20 09:27:44;;;;;;;;;;;17.90;99.90;;;;;;8357552;28;19935;-69
2022/06/20 09:32:04;;;;;;;;;;;18.00;99.90;;;;;;8356660;28;20288;-70
2022/06/20 09:36:08;;;;;;;;;;;18.10;99.90;;;;;;8354224;28;19924;-70
2022/06/20 09:40:18;;;;;;;;;;;18.10;99.90;;;;;;8356852;28;20353;-70
2022/06/20 09:44:31;;;;;;;;;;;18.10;99.90;;;;;;8362382;28;19921;-69
2022/06/20 09:48:45;;;;;;;;;;;18.20;99.90;;;;;;8357999;28;19990;-69
2022/06/20 09:53:13;;;;;;;;;;;18.20;99.90;;;;;;8365598;28;19939;-70
2022/06/20 09:57:34;;;;;;;;;;;18.30;99.90;;;;;;8354717;28;20237;-70
2022/06/20 10:01:44;;;;;;;;;;;18.30;99.90;;;;;;8352236;28;19932;-70
2022/06/20 10:06:05;;;;;;;;;;;18.40;99.90;;;;;;8352829;28;20059;-70
2022/06/20 10:10:09;;;;;;;;;;;18.50;99.90;;;;;;8353668;28;19927;-69
2022/06/20 10:14:21;;;;;;;;;;;18.70;99.90;;;;;;8361883;28;19925;-70
2022/06/20 10:18:33;;;;;;;;;;;18.70;99.90;;;;;;8363021;28;19932;-69
2022/06/20 10:22:41;;;;;;;;;;;18.80;99.90;;;;;;8364083;28;19929;-69
2022/06/20 10:26:42;;;;;;;;;;;18.80;99.90;;;;;;8359844;28;19925;-69
2022/06/20 10:30:44;;;;;;;;;;;19.00;99.90;;;;;;8355850;28;20097;-69
2022/06/20 10:35:05;;;;;;;;;;;19.10;99.90;;;;;;8356185;28;19940;-70
2022/06/20 10:39:09;;;;;;;;;;;19.20;99.90;;;;;;8363209;28;19921;-69
2022/06/20 10:43:18;;;;;;;;;;;19.10;99.90;;;;;;8361595;28;19947;-70
2022/06/20 10:47:22;;;;;;;;;;;18.90;99.90;;;;;;8361897;28;19939;-70
2022/06/20 10:51:27;;;;;;;;;;;18.80;99.90;;;;;;8355916;28;19928;-70
2022/06/20 10:55:51;;;;;;;;;;;18.80;99.90;;;;;;8386248;28;20291;-70
2022/06/20 11:00:31;;;;;;;;;;;18.80;99.90;;;;;;8357569;28;19921;-69
2022/06/20 11:04:51;;;;;;;;;;;18.90;99.90;;;;;;8290767;28;19922;-70
2022/06/20 11:09:00;;;;;;;;;;;18.90;99.90;;;;;;8323543;28;20265;-71
2022/06/20 11:13:11;;;;;;;;;;;18.80;99.90;;;;;;8392399;28;19932;-70
2022/06/20 11:17:15;;;;;;;;;;;18.70;99.90;;;;;;8355975;28;19928;-70
2022/06/20 11:21:23;;;;;;;;;;;18.70;99.90;;;;;;8353918;28;19935;-70
2022/06/20 11:25:31;;;;;;;;;;;18.70;99.90;;;;;;8356015;28;19932;-70
2022/06/20 11:29:49;;;;;;;;;;;18.80;99.90;;;;;;8357352;28;19932;-70
2022/06/20 11:34:14;;;;;;;;;;;18.90;99.90;;;;;;8357574;28;19935;-70
2022/06/20 11:42:37;;;;;;;;;;;19.00;99.90;;;;;;8322294;28;20367;-71
2022/06/20 11:46:39;;;;;;;;;;;19.10;99.90;;;;;;8308508;28;20437;-71
2022/06/20 11:50:43;;;;;;;;;;;19.10;99.90;;;;;;8324508;28;19928;-71
2022/06/20 11:54:53;;;;;;;;;;;19.10;99.90;;;;;;8323032;28;19921;-71
2022/06/20 11:59:10;;;;;;;;;;;19.00;99.90;;;;;;8324072;28;20040;-72
2022/06/20 12:03:19;;;;;;;;;;;19.10;99.90;;;;;;8323456;28;19924;-72
2022/06/20 12:07:28;;;;;;;;;;;19.10;99.90;;;;;;8329100;28;19935;-72
2022/06/20 12:11:29;;;;;;;;;;;19.10;99.90;;;;;;8328073;28;19921;-72
2022/06/20 12:15:42;;;;;;;;;;;19.20;99.90;;;;;;8324459;28;20290;-71
2022/06/20 12:24:27;;;;;;;;;;;19.10;99.90;;;;;;8321548;28;20320;-71
2022/06/20 12:28:34;;;;;;;;;;;19.10;99.90;;;;;;8323239;28;19971;-72
2022/06/20 12:32:35;;;;;;;;;;;19.00;99.90;;;;;;8324811;28;19947;-72
2022/06/20 12:36:58;;;;;;;;;;;19.00;99.90;;;;;;8323429;28;19939;-72
2022/06/20 12:41:02;;;;;;;;;;;19.10;99.90;;;;;;8323936;28;20360;-71
2022/06/20 12:45:13;;;;;;;;;;;19.10;99.90;;;;;;8323828;28;20276;-72
2022/06/20 12:49:14;;;;;;;;;;;19.10;99.90;;;;;;8314613;28;19936;-72
2022/06/20 12:53:17;;;;;;;;;;;19.20;99.90;;;;;;8317979;28;19948;-72
2022/06/20 12:57:42;;;;;;;;;;;19.30;99.90;;;;;;8307182;28;19929;-72
2022/06/20 13:01:48;;;;;;;;;;;19.30;99.90;;;;;;8320734;28;19975;-72
2022/06/20 13:05:59;;;;;;;;;;;19.30;99.90;;;;;;8317043;28;20367;-72
2022/06/20 13:10:22;;;;;;;;;;;19.20;99.90;;;;;;8299376;28;19948;-72
2022/06/20 13:14:24;;;;;;;;;;;19.30;99.90;;;;;;8328769;28;19952;-71
2022/06/20 13:18:38;;;;;;;;;;;19.30;99.90;;;;;;8323922;28;20264;-72
2022/06/20 13:22:45;;;;;;;;;;;19.20;99.90;;;;;;8325258;28;19929;-72
2022/06/20 13:26:50;;;;;;;;;;;19.20;99.90;;;;;;8328408;28;19952;-72
2022/06/20 13:31:01;;;;;;;;;;;19.30;99.90;;;;;;8324275;28;20386;-72
2022/06/20 13:35:15;;;;;;;;;;;19.30;99.90;;;;;;8325118;28;19934;-72
2022/06/20 13:39:36;;;;;;;;;;;19.40;99.90;;;;;;8322078;28;19925;-72
2022/06/20 13:43:52;;;;;;;;;;;19.40;99.90;;;;;;8330944;28;20299;-72
2022/06/20 13:48:01;;;;;;;;;;;19.40;99.90;;;;;;8325295;28;19943;-72
2022/06/20 13:52:26;;;;;;;;;;;19.40;99.90;;;;;;8331469;28;19925;-72
2022/06/20 13:56:42;;;;;;;;;;;19.40;99.90;;;;;;8323813;28;20042;-72
2022/06/20 14:00:44;;;;;;;;;;;19.40;99.90;;;;;;8340800;28;19925;-72
2022/06/20 14:05:32;;;;;;;;;;;19.50;99.90;;;;;;8341359;28;19933;-73
2022/06/20 14:09:42;;;;;;;;;;;19.50;99.90;;;;;;8337141;28;19949;-72
2022/06/20 14:13:45;;;;;;;;;;;19.50;99.90;;;;;;8323594;28;19925;-72
2022/06/20 14:17:51;;;;;;;;;;;19.50;99.90;;;;;;8316346;28;19925;-72
2022/06/20 14:21:56;;;;;;;;;;;19.60;99.90;;;;;;8333450;28;19928;-72
2022/06/20 14:26:00;;;;;;;;;;;19.70;99.90;;;;;;8337363;28;19924;-72
2022/06/20 14:30:01;;;;;;;;;;;19.70;99.90;;;;;;8331873;28;19936;-72
2022/06/20 14:34:11;;;;;;;;;;;19.80;99.90;;;;;;8337450;28;19921;-73
2022/06/20 14:38:20;;;;;;;;;;;19.80;99.90;;;;;;8327583;28;19943;-72
2022/06/20 14:42:34;;;;;;;;;;;19.80;99.90;;;;;;8320440;28;19921;-72
2022/06/20 14:46:49;;;;;;;;;;;20.00;99.90;;;;;;8326691;28;19943;-72
2022/06/20 14:50:56;;;;;;;;;;;20.20;99.90;;;;;;8310755;28;20315;-72
2022/06/20 14:55:01;;;;;;;;;;;20.40;99.90;;;;;;8325952;28;19928;-72
2022/06/20 14:59:05;;;;;;;;;;;20.60;99.90;;;;;;8319441;28;19925;-72
2022/06/20 15:03:17;;;;;;;;;;;20.60;99.90;;;;;;8323809;28;20267;-72
2022/06/20 15:07:34;;;;;;;;;;;20.50;99.90;;;;;;8327316;28;19925;-72
2022/06/20 15:11:37;;;;;;;;;;;20.40;99.90;;;;;;8309221;28;19925;-72
2022/06/20 15:15:43;;;;;;;;;;;20.30;99.90;;;;;;8327350;28;20348;-72
2022/06/20 15:19:52;;;;;;;;;;;20.20;99.90;;;;;;8326631;28;19983;-72
2022/06/20 15:24:32;;;;;;;;;;;20.10;99.90;;;;;;8326555;28;20380;-72
2022/06/20 15:28:39;;;;;;;;;;;20.00;99.90;;;;;;8281872;28;19925;-72
2022/06/20 15:32:42;;;;;;;;;;;20.00;99.90;;;;;;8304526;28;19925;-72
2022/06/20 15:36:45;;;;;;;;;;;20.10;99.90;;;;;;8324736;28;19921;-72
2022/06/20 15:40:50;;;;;;;;;;;20.20;99.90;;;;;;8328439;28;19924;-72
2022/06/20 15:45:02;;;;;;;;;;;20.40;99.90;;;;;;8324425;28;20282;-72
2022/06/20 15:49:16;;;;;;;;;;;20.40;99.90;;;;;;8324046;28;19978;-72
2022/06/20 15:53:36;;;;;;;;;;;20.30;99.90;;;;;;8319072;28;19925;-72
2022/06/20 15:57:37;;;;;;;;;;;20.20;99.90;;;;;;8323976;28;19921;-72
2022/06/20 16:01:58;;;;;;;;;;;20.10;99.90;;;;;;8326158;28;19924;-72
2022/06/20 16:06:03;;;;;;;;;;;20.00;99.90;;;;;;8321727;28;19929;-73
2022/06/20 16:10:16;;;;;;;;;;;20.10;99.90;;;;;;8322356;28;19924;-73
2022/06/20 16:14:24;;;;;;;;;;;20.10;99.90;;;;;;8323505;28;19928;-72
2022/06/20 16:18:28;;;;;;;;;;;20.10;99.90;;;;;;8316868;28;19964;-72
2022/06/20 16:22:31;;;;;;;;;;;20.10;99.90;;;;;;8324693;28;19921;-72
2022/06/20 16:26:38;;;;;;;;;;;20.10;99.90;;;;;;8326811;28;20433;-72
2022/06/20 16:30:40;;;;;;;3.70;1.40;;;20.70;99.90;;;;;;8323352;28;19920;-72
2022/06/20 16:34:52;;;;;;;3.17;1.48;;;21.50;99.90;;;;;;8327347;28;20095;-72
2022/06/20 16:38:59;;;;;;;2.60;1.27;;;21.90;99.90;;;;;;8327579;28;20065;-73
2022/06/20 16:43:24;;;;;;;2.83;1.38;;;22.00;99.90;;;;;;8317826;28;20049;-72
2022/06/20 16:47:38;;;;;;;2.78;1.20;;;22.10;99.90;;;;;;8321843;28;20044;-72
2022/06/20 16:51:43;;;;;;;;;;;22.30;99.90;;;;;;8318805;28;21376;-72
2022/06/20 16:55:49;;;;;;;;;;;22.50;99.90;;;;;;8314638;28;20035;-72
2022/06/20 16:59:57;;;;;;;3.38;1.10;;;23.00;99.90;;;;;;8322073;28;19972;-72
2022/06/20 17:04:03;;;;;;;3.22;1.55;;;23.50;99.90;;;;;;8320459;28;20045;-72
2022/06/20 17:08:27;;;;;;;2.58;1.20;;;23.80;99.90;;;;;;8325782;28;20409;-72
2022/06/20 17:12:47;;;;;;;5.47;1.60;;;24.10;99.90;;;;;;8322395;28;20625;-72
2022/06/20 17:17:25;;;;;;;3.83;1.13;;;24.30;99.90;;;;;;8320310;28;20053;-72
2022/06/20 17:21:43;;;;;;;3.55;1.73;;;24.50;99.90;;;;;;8309107;28;20076;-72
2022/06/20 17:26:07;;;;;;;3.25;1.38;;;24.60;99.90;;;;;;8328197;28;20049;-72
2022/06/20 17:30:17;;;;;;;2.95;1.23;;;24.30;99.90;;;;;;8330042;28;20048;-72
2022/06/20 17:34:39;;;;;;;4.88;1.50;;;23.70;99.90;;;;;;8330253;28;20049;-72
2022/06/20 17:38:55;;;;;;;3.10;1.30;;;23.20;99.90;;;;;;8328217;28;20045;-72
2022/06/20 17:43:26;;;;;;;3.28;1.30;;;22.80;99.90;;;;;;8333197;28;20116;-72
2022/06/20 17:47:46;;;;;;;3.22;1.40;;;22.40;99.90;;;;;;8318339;28;20048;-73
2022/06/20 17:51:51;;;;;;;2.78;1.20;;;22.10;99.90;;;;;;8312285;28;20091;-72
2022/06/20 17:56:10;;;;;;;3.58;1.33;;;21.80;99.90;;;;;;8325865;28;20046;-72
2022/06/20 18:00:19;;;;;;;3.10;1.17;;;21.40;99.90;;;;;;8328589;28;20700;-72
2022/06/20 18:04:31;;;;;;;4.05;1.42;;;21.20;99.90;;;;;;8313700;28;20059;-72
2022/06/20 18:08:42;;;;;;;2.90;1.10;;;21.00;99.90;;;;;;8332026;28;20080;-72
2022/06/20 18:12:52;;;;;;;3.00;1.13;;;20.90;99.90;;;;;;8335993;28;20057;-72
2022/06/20 18:17:16;;;;;;;2.58;1.10;;;20.90;99.90;;;;;;8313386;28;20067;-72
2022/06/20 18:21:33;;;;;;;3.10;1.40;;;20.90;99.90;;;;;;8312698;28;20042;-72
2022/06/20 18:25:48;;;;;;;2.50;1.00;;;20.80;99.90;;;;;;8330528;28;19929;-72
2022/06/20 18:29:50;;;;;;;;;;;20.70;99.90;;;;;;8329215;28;19925;-72
2022/06/20 18:33:52;;;;;;;;;;;20.60;99.90;;;;;;8326003;28;21405;-72
2022/06/20 18:38:09;;;;;;;;;;;20.40;99.90;;;;;;8319995;28;19925;-72
2022/06/20 18:42:12;;;;;;;;;;;20.30;99.90;;;;;;8333382;28;19925;-73
2022/06/20 18:46:18;;;;;;;;;;;20.10;99.90;;;;;;8315383;28;19956;-73
2022/06/20 18:50:20;;;;;;;;;;;20.00;99.90;;;;;;8322311;28;19956;-73
2022/06/20 18:54:22;;;;;;;;;;;20.00;99.90;;;;;;8310783;28;19944;-73
2022/06/20 18:58:39;;;;;;;;;;;19.90;99.90;;;;;;8327479;28;20286;-72
2022/06/20 19:02:48;;;;;;;;;;;19.90;99.90;;;;;;8326557;28;19921;-73
2022/06/20 19:07:17;;;;;;;;;;;19.80;99.90;;;;;;8325174;28;20438;-73
2022/06/20 19:11:24;;;;;;;;;;;19.70;99.90;;;;;;8335953;28;19921;-73
2022/06/20 19:15:42;;;;;;;;;;;19.70;99.90;;;;;;8328859;28;19921;-73
2022/06/20 19:20:02;;;;;;;;;;;19.60;99.90;;;;;;8313179;28;19921;-72
2022/06/20 19:24:11;;;;;;;;;;;19.60;99.90;;;;;;8329066;28;20083;-73
2022/06/20 19:28:41;;;;;;;;;;;19.50;99.90;;;;;;8329059;28;19992;-72
2022/06/20 19:32:45;;;;;;;;;;;19.40;99.90;;;;;;8303781;28;19940;-72
2022/06/20 19:36:56;;;;;;;;;;;19.30;99.90;;;;;;8325342;28;19927;-73
2022/06/20 19:41:09;;;;;;;;;;;19.20;99.90;;;;;;8327106;28;19928;-73
2022/06/20 19:45:11;;;;;;;;;;;19.10;99.90;;;;;;8326690;28;20425;-73
2022/06/20 19:49:31;;;;;;;;;;;19.00;99.90;;;;;;8306280;28;19940;-73
2022/06/20 19:53:34;;;;;;;;;;;18.90;99.90;;;;;;8326326;28;20800;-72
2022/06/20 19:57:38;;;;;;;;;;;18.80;99.90;;;;;;8311636;28;19925;-72
2022/06/20 20:01:41;;;;;;;;;;;18.70;99.90;;;;;;8328323;28;19929;-72
2022/06/20 20:05:52;;;;;;;;;;;18.50;99.90;;;;;;8329828;28;20386;-72
2022/06/20 20:09:54;;;;;;;;;;;18.50;99.90;;;;;;8321597;28;20379;-73
2022/06/20 20:13:57;;;;;;;;;;;18.40;99.90;;;;;;8325423;28;19935;-73
2022/06/20 20:18:23;;;;;;;;;;;18.30;99.90;;;;;;8324546;28;19932;-73
2022/06/20 20:22:30;;;;;;;;;;;18.20;99.90;;;;;;8298382;28;19969;-73
2022/06/20 20:26:38;;;;;;;;;;;18.20;99.90;;;;;;8320534;28;19944;-72
2022/06/20 20:30:46;;;;;;;;;;;18.10;99.90;;;;;;8323722;28;20271;-73
2022/06/20 20:34:50;;;;;;;;;;;18.00;99.90;;;;;;8328319;28;19956;-73
2022/06/20 20:39:11;;;;;;;;;;;17.90;99.90;;;;;;8305972;28;20287;-73
2022/06/20 20:43:32;;;;;;;;;;;17.90;99.90;;;;;;8325532;28;19929;-73
2022/06/20 20:47:35;;;;;;;;;;;17.80;99.90;;;;;;8321039;28;22765;-73
2022/06/20 20:51:37;;;;;;;;;;;17.80;99.90;;;;;;8321767;28;19932;-73
2022/06/20 20:55:41;;;;;;;;;;;17.70;99.90;;;;;;8322955;28;19925;-72
2022/06/20 20:59:45;;;;;;;;;;;17.70;99.90;;;;;;8323517;28;21042;-72
2022/06/20 21:03:49;;;;;;;;;;;17.70;99.90;;;;;;8341708;28;20792;-72
2022/06/20 21:07:52;;;;;;;;;;;17.60;99.90;;;;;;8348209;28;21748;-73
2022/06/20 21:11:56;;;;;;;;;;;17.50;99.90;;;;;;8353480;28;19932;-72
2022/06/20 21:15:59;;;;;;;;;;;17.50;99.90;;;;;;8348125;28;19920;-73
2022/06/20 21:20:06;;;;;;;;;;;17.40;99.90;;;;;;8339173;28;19921;-73
2022/06/20 21:24:08;;;;;;;;;;;17.30;99.90;;;;;;8351129;28;20326;-73
2022/06/20 21:28:11;;;;;;;;;;;17.20;99.90;;;;;;8346256;28;20291;-73
2022/06/20 21:32:17;;;;;;;;;;;17.10;99.90;;;;;;8351419;28;19932;-73
2022/06/20 21:36:19;;;;;;;;;;;17.00;99.90;;;;;;8349623;28;19925;-73
2022/06/20 21:40:22;;;;;;;;;;;16.90;99.90;;;;;;8342806;28;19925;-73
2022/06/20 21:44:28;;;;;;;;;;;16.90;99.90;;;;;;8349223;28;19921;-72
2022/06/20 21:48:32;;;;;;;;;;;16.80;99.90;;;;;;8346453;28;19921;-73
2022/06/20 21:52:38;;;;;;;;;;;16.70;99.90;;;;;;8354062;28;19928;-73
2022/06/20 21:57:03;;;;;;;;;;;16.60;99.90;;;;;;8348932;28;19921;-73
2022/06/20 22:01:04;;;;;;;;;;;16.50;99.90;;;;;;8347254;28;19928;-72
2022/06/20 22:05:23;;;;;;;;;;;16.50;99.90;;;;;;8341588;28;20459;-73
2022/06/20 22:09:27;;;;;;;;;;;16.30;99.90;;;;;;8349401;28;19924;-73
2022/06/20 22:13:47;;;;;;;;;;;16.20;99.90;;;;;;8351041;28;19925;-73
2022/06/20 22:17:49;;;;;;;;;;;16.10;99.90;;;;;;8348356;28;19932;-73
2022/06/20 22:21:53;;;;;;;;;;;16.10;99.90;;;;;;8347382;28;19932;-73
2022/06/20 22:25:58;;;;;;;;;;;16.00;99.90;;;;;;8354226;28;19944;-73
2022/06/20 22:30:04;;;;;;;;;;;15.90;99.90;;;;;;8358141;28;20363;-73
2022/06/20 22:34:16;;;;;;;;;;;15.90;99.90;;;;;;8352087;28;19967;-72
2022/06/20 22:38:21;;;;;;;;;;;15.80;99.90;;;;;;8353272;28;20273;-72
2022/06/20 22:42:27;;;;;;;;;;;15.60;99.90;;;;;;8355774;28;19933;-72
2022/06/20 22:46:31;;;;;;;;;;;15.30;99.90;;;;;;8349105;28;19932;-73
2022/06/20 22:50:39;;;;;;;;;;;15.20;99.90;;;;;;8357694;28;19982;-73
2022/06/20 22:54:45;;;;;;;;;;;15.20;99.90;;;;;;8355752;28;20509;-72
2022/06/20 22:58:48;;;;;;;;;;;15.10;99.90;;;;;;8351800;28;20069;-72
2022/06/20 23:02:50;;;;;;;;;;;15.10;99.90;;;;;;8354252;28;20291;-72
2022/06/20 23:06:53;;;;;;;;;;;15.10;99.90;;;;;;8354014;28;19935;-73
2022/06/20 23:10:55;;;;;;;;;;;15.00;99.90;;;;;;8337000;28;19932;-73
2022/06/20 23:14:57;;;;;;;;;;;14.90;99.90;;;;;;8364794;28;19924;-72
2022/06/20 23:23:20;;;;;;;;;;;14.80;99.90;;;;;;8350228;28;20336;-72
2022/06/20 23:27:21;;;;;;;;;;;14.70;99.90;;;;;;8351980;28;20268;-73
2022/06/20 23:31:23;;;;;;;;;;;14.70;99.90;;;;;;8354124;28;19936;-72
2022/06/20 23:35:31;;;;;;;;;;;14.60;99.90;;;;;;8343570;28;20379;-72
2022/06/20 23:39:34;;;;;;;;;;;14.60;99.90;;;;;;8352271;28;19940;-73
2022/06/20 23:43:36;;;;;;;;;;;14.50;99.90;;;;;;8350420;28;20470;-72
2022/06/20 23:47:38;;;;;;;;;;;14.40;99.90;;;;;;8349980;28;19928;-72
2022/06/20 23:51:40;;;;;;;;;;;14.40;99.90;;;;;;8353070;28;19925;-72
2022/06/20 23:55:46;;;;;;;;;;;14.40;99.90;;;;;;8361051;28;19932;-72
2022/06/20 23:59:48;;;;;;;;;;;14.30;99.90;;;;;;8338353;28;19931;-72
